FlightSource - Aviation Photo Database

World Wide Airport Lookup


Search by ICAO
Or
Search by City

FlightSource.ca - Aviation Photo Database - Scappoose Industrial Airpark Information
Airport Identification
Name: Scappoose Industrial Airpark
ICAO: KSPB
IATA:
Airport Location
City: Scappoose
Region: OR
Country: United States
Continent: North America
Latitude: 45.771
Longitude: -122.862
Airport Information
Type: Small Airport
Elevation: 58 Feet ASL
Flight Status: KSPB
More Info: KSPB
Airport Weather    
Metar: KSPB 221453Z AUTO 15004KT 10SM BKN019 BKN039 06/04 A3022 RMK AO2 RAB1355E38 SLP234 P0000 60002 T00560044 51008
TAF:


Advertisement